createdAt,value
2023-04-27T00:00:55.138Z,540.00
2023-04-27T00:01:55.232Z,539.00
2023-04-27T00:02:55.342Z,541.00
2023-04-27T00:03:55.291Z,540.00
2023-04-27T00:04:55.417Z,539.00
2023-04-27T00:05:55.554Z,535.00
2023-04-27T00:06:55.157Z,533.00
2023-04-27T00:07:55.191Z,535.00
2023-04-27T00:08:55.175Z,534.00
2023-04-27T00:09:55.277Z,534.00
2023-04-27T00:10:55.186Z,535.00
2023-04-27T00:11:55.215Z,533.00
2023-04-27T00:12:55.219Z,531.00
2023-04-27T00:13:55.257Z,531.00
2023-04-27T00:14:55.265Z,531.00
2023-04-27T00:15:55.293Z,530.00
2023-04-27T00:16:55.249Z,530.00
2023-04-27T00:17:55.293Z,529.00
2023-04-27T00:18:55.290Z,529.00
2023-04-27T00:19:55.394Z,529.00
2023-04-27T00:20:55.286Z,528.00
2023-04-27T00:21:55.322Z,528.00
2023-04-27T00:22:55.295Z,528.00
2023-04-27T00:23:55.317Z,527.00
2023-04-27T00:24:55.316Z,529.00
2023-04-27T00:25:55.381Z,524.00
2023-04-27T00:26:55.360Z,523.00
2023-04-27T00:27:55.391Z,524.00
2023-04-27T00:28:55.371Z,522.00
2023-04-27T00:29:55.369Z,524.00
2023-04-27T00:30:55.385Z,528.00
2023-04-27T00:31:55.509Z,528.00
2023-04-27T00:32:55.439Z,527.00
2023-04-27T00:33:55.406Z,527.00
2023-04-27T00:34:55.439Z,527.00
2023-04-27T00:35:55.442Z,526.00
2023-04-27T00:36:55.448Z,526.00
2023-04-27T00:37:55.916Z,523.00
2023-04-27T00:38:55.455Z,524.00
2023-04-27T00:39:55.481Z,524.00
2023-04-27T00:40:55.479Z,524.00
2023-04-27T00:41:55.484Z,522.00
2023-04-27T00:42:55.553Z,523.00
2023-04-27T00:43:55.521Z,523.00
2023-04-27T00:44:55.934Z,523.00
2023-04-27T00:45:55.576Z,522.00
2023-04-27T00:46:55.548Z,521.00
2023-04-27T00:47:55.603Z,518.00
2023-04-27T00:48:55.590Z,519.00
2023-04-27T00:49:55.596Z,523.00
2023-04-27T00:50:55.610Z,523.00
2023-04-27T00:51:55.588Z,521.00
2023-04-27T00:52:55.637Z,521.00
2023-04-27T00:53:55.709Z,518.00
2023-04-27T00:54:55.636Z,517.00
2023-04-27T00:55:55.647Z,514.00
2023-04-27T00:56:55.644Z,511.00
2023-04-27T00:57:55.653Z,509.00
2023-04-27T00:58:55.648Z,510.00
2023-04-27T00:59:55.715Z,507.00
2023-04-27T01:00:55.714Z,507.00
2023-04-27T01:01:55.685Z,508.00
2023-04-27T01:02:55.832Z,508.00
2023-04-27T01:03:55.942Z,507.00
2023-04-27T01:04:55.806Z,508.00
2023-04-27T01:05:55.763Z,511.00
2023-04-27T01:06:55.731Z,510.00
2023-04-27T01:07:55.761Z,508.00
2023-04-27T01:08:55.782Z,508.00
2023-04-27T01:09:55.807Z,510.00
2023-04-27T01:10:55.833Z,513.00
2023-04-27T01:11:56.425Z,513.00
2023-04-27T01:12:55.812Z,512.00
2023-04-27T01:13:55.828Z,511.00
2023-04-27T01:14:55.831Z,512.00
2023-04-27T01:15:55.871Z,511.00
2023-04-27T01:16:55.916Z,514.00
2023-04-27T01:17:55.894Z,510.00
2023-04-27T01:18:55.866Z,512.00
2023-04-27T01:19:55.954Z,512.00
2023-04-27T01:20:55.893Z,514.00
2023-04-27T01:21:55.933Z,516.00
2023-04-27T01:22:55.908Z,512.00
2023-04-27T01:23:55.905Z,512.00
2023-04-27T01:24:55.933Z,509.00
2023-04-27T01:25:55.921Z,507.00
2023-04-27T01:26:55.949Z,507.00
2023-04-27T01:27:55.968Z,507.00
2023-04-27T01:28:56.040Z,508.00
2023-04-27T01:29:55.985Z,505.00
2023-04-27T01:30:56.004Z,505.00
2023-04-27T01:31:56.022Z,505.00
2023-04-27T01:32:56.476Z,507.00
2023-04-27T01:33:56.022Z,510.00
2023-04-27T01:34:56.021Z,510.00
2023-04-27T01:35:56.039Z,509.00
2023-04-27T01:36:56.038Z,510.00
2023-04-27T01:37:56.082Z,509.00
2023-04-27T01:38:56.164Z,508.00
2023-04-27T01:39:56.115Z,511.00
2023-04-27T01:40:56.099Z,508.00
2023-04-27T01:41:57.853Z,506.00
2023-04-27T01:42:56.110Z,503.00
2023-04-27T01:43:56.129Z,503.00
2023-04-27T01:44:56.173Z,500.00
2023-04-27T01:45:56.165Z,501.00
2023-04-27T01:46:56.174Z,501.00
2023-04-27T01:47:56.234Z,501.00
2023-04-27T01:48:56.193Z,498.00
2023-04-27T01:49:56.240Z,499.00
2023-04-27T01:50:56.204Z,501.00
2023-04-27T01:51:56.205Z,500.00
2023-04-27T01:52:56.243Z,497.00
2023-04-27T01:53:56.228Z,496.00
2023-04-27T01:54:56.254Z,496.00
2023-04-27T01:55:56.259Z,498.00
2023-04-27T01:56:56.276Z,497.00
2023-04-27T01:57:56.286Z,498.00
2023-04-27T01:58:56.281Z,499.00
2023-04-27T01:59:56.294Z,501.00
2023-04-27T02:00:56.313Z,500.00
2023-04-27T02:01:56.411Z,503.00
2023-04-27T02:02:56.502Z,501.00
2023-04-27T02:03:56.635Z,502.00
2023-04-27T02:04:56.496Z,500.00
2023-04-27T02:05:56.409Z,498.00
2023-04-27T02:06:56.376Z,497.00
2023-04-27T02:07:56.412Z,495.00
2023-04-27T02:08:56.426Z,495.00
2023-04-27T02:09:56.431Z,493.00
2023-04-27T02:10:56.441Z,493.00
2023-04-27T02:11:56.464Z,494.00
2023-04-27T02:12:56.448Z,496.00
2023-04-27T02:13:56.487Z,493.00
2023-04-27T02:14:56.504Z,495.00
2023-04-27T02:15:56.597Z,494.00
2023-04-27T02:16:56.507Z,490.00
2023-04-27T02:17:56.571Z,493.00
2023-04-27T02:18:56.546Z,493.00
2023-04-27T02:19:56.555Z,493.00
2023-04-27T02:20:56.594Z,492.00
2023-04-27T02:21:56.567Z,491.00
2023-04-27T02:22:56.668Z,492.00
2023-04-27T02:23:56.604Z,490.00
2023-04-27T02:24:56.639Z,491.00
2023-04-27T02:25:56.601Z,493.00
2023-04-27T02:26:56.605Z,492.00
2023-04-27T02:27:56.644Z,495.00
2023-04-27T02:28:56.647Z,495.00
2023-04-27T02:29:56.660Z,498.00
2023-04-27T02:30:56.688Z,497.00
2023-04-27T02:31:56.727Z,497.00
2023-04-27T02:32:56.700Z,497.00
2023-04-27T02:33:56.698Z,494.00
2023-04-27T02:34:56.748Z,495.00
2023-04-27T02:35:56.751Z,499.00
2023-04-27T02:36:56.739Z,500.00
2023-04-27T02:37:56.752Z,499.00
2023-04-27T02:38:56.768Z,501.00
2023-04-27T02:39:56.778Z,500.00
2023-04-27T02:40:56.791Z,502.00
2023-04-27T02:41:56.793Z,499.00
2023-04-27T02:42:56.804Z,497.00
2023-04-27T02:43:56.812Z,495.00
2023-04-27T02:44:56.825Z,495.00
2023-04-27T02:45:56.835Z,493.00
2023-04-27T02:46:56.877Z,491.00
2023-04-27T02:47:56.883Z,492.00
2023-04-27T02:48:56.905Z,494.00
2023-04-27T02:49:56.898Z,490.00
2023-04-27T02:50:56.906Z,489.00
2023-04-27T02:51:56.916Z,488.00
2023-04-27T02:52:56.910Z,489.00
2023-04-27T02:53:56.912Z,488.00
2023-04-27T02:54:56.939Z,486.00
2023-04-27T02:55:56.957Z,487.00
2023-04-27T02:56:56.958Z,485.00
2023-04-27T02:57:56.968Z,484.00
2023-04-27T02:58:56.978Z,486.00
2023-04-27T02:59:56.987Z,486.00
2023-04-27T03:00:57.096Z,490.00
2023-04-27T03:01:57.004Z,489.00
2023-04-27T03:02:57.106Z,490.00
2023-04-27T03:03:57.156Z,489.00
2023-04-27T03:04:57.510Z,489.00
2023-04-27T03:05:57.121Z,488.00
2023-04-27T03:06:57.117Z,489.00
2023-04-27T03:07:57.077Z,486.00
2023-04-27T03:08:57.104Z,485.00
2023-04-27T03:09:57.090Z,486.00
2023-04-27T03:10:57.081Z,485.00
2023-04-27T03:11:57.112Z,486.00
2023-04-27T03:12:57.113Z,490.00
2023-04-27T03:13:57.117Z,489.00
2023-04-27T03:14:57.148Z,486.00
2023-04-27T03:15:57.200Z,485.00
2023-04-27T03:16:57.173Z,485.00
2023-04-27T03:17:57.235Z,482.00
2023-04-27T03:18:57.218Z,483.00
2023-04-27T03:19:57.194Z,482.00
2023-04-27T03:20:57.191Z,480.00
2023-04-27T03:21:57.242Z,484.00
2023-04-27T03:22:57.234Z,484.00
2023-04-27T03:23:57.254Z,486.00
2023-04-27T03:24:57.261Z,485.00
2023-04-27T03:25:57.250Z,485.00
2023-04-27T03:26:57.300Z,487.00
2023-04-27T03:27:57.268Z,488.00
2023-04-27T03:28:57.288Z,487.00
2023-04-27T03:29:57.324Z,487.00
2023-04-27T03:30:57.361Z,490.00
2023-04-27T03:31:57.374Z,491.00
2023-04-27T03:32:57.387Z,491.00
2023-04-27T03:33:57.350Z,491.00
2023-04-27T03:34:57.380Z,490.00
2023-04-27T03:35:57.355Z,492.00
2023-04-27T03:36:57.392Z,492.00
2023-04-27T03:37:57.414Z,493.00
2023-04-27T03:38:57.419Z,492.00
2023-04-27T03:39:57.446Z,489.00
2023-04-27T03:40:57.433Z,484.00
2023-04-27T03:41:57.463Z,485.00
2023-04-27T03:42:59.103Z,488.00
2023-04-27T03:43:57.497Z,490.00
2023-04-27T03:44:57.497Z,489.00
2023-04-27T03:45:57.672Z,488.00
2023-04-27T03:46:57.536Z,489.00
2023-04-27T03:47:57.574Z,489.00
2023-04-27T03:48:57.567Z,490.00
2023-04-27T03:49:57.555Z,486.00
2023-04-27T03:50:57.579Z,487.00
2023-04-27T03:51:57.636Z,487.00
2023-04-27T03:52:57.612Z,488.00
2023-04-27T03:53:57.688Z,489.00
2023-04-27T03:54:57.631Z,488.00
2023-04-27T03:55:57.657Z,488.00
2023-04-27T03:56:57.665Z,485.00
2023-04-27T03:57:57.662Z,482.00
2023-04-27T03:58:57.701Z,480.00
2023-04-27T03:59:57.721Z,477.00
2023-04-27T04:00:57.697Z,475.00
2023-04-27T04:01:59.546Z,476.00
2023-04-27T04:02:57.849Z,476.00
2023-04-27T04:03:58.020Z,476.00
2023-04-27T04:04:57.785Z,478.00
2023-04-27T04:05:57.726Z,480.00
2023-04-27T04:06:57.666Z,480.00
2023-04-27T04:07:57.679Z,479.00
2023-04-27T04:08:57.657Z,480.00
2023-04-27T04:09:57.649Z,481.00
2023-04-27T04:10:57.645Z,480.00
2023-04-27T04:11:57.640Z,482.00
2023-04-27T04:12:57.625Z,480.00
2023-04-27T04:13:57.630Z,479.00
2023-04-27T04:14:57.671Z,478.00
2023-04-27T04:15:57.655Z,479.00
2023-04-27T04:16:57.589Z,477.00
2023-04-27T04:17:57.665Z,476.00
2023-04-27T04:18:57.608Z,473.00
2023-04-27T04:19:57.626Z,472.00
2023-04-27T04:20:57.587Z,476.00
2023-04-27T04:21:57.561Z,474.00
2023-04-27T04:22:57.570Z,475.00
2023-04-27T04:23:57.545Z,474.00
2023-04-27T04:24:57.550Z,473.00
2023-04-27T04:25:57.543Z,473.00
2023-04-27T04:26:57.625Z,474.00
2023-04-27T04:27:57.515Z,473.00
2023-04-27T04:28:57.514Z,474.00
2023-04-27T04:29:57.530Z,472.00
2023-04-27T04:30:57.523Z,473.00
2023-04-27T04:31:57.489Z,470.00
2023-04-27T04:32:57.530Z,473.00
2023-04-27T04:33:57.480Z,473.00
2023-04-27T04:34:57.566Z,474.00
2023-04-27T04:35:57.466Z,474.00
2023-04-27T04:36:57.482Z,473.00
2023-04-27T04:37:57.465Z,471.00
2023-04-27T04:38:57.486Z,469.00
2023-04-27T04:39:57.429Z,472.00
2023-04-27T04:40:57.440Z,474.00
2023-04-27T04:41:57.410Z,473.00
2023-04-27T04:42:57.415Z,471.00
2023-04-27T04:43:57.416Z,469.00
2023-04-27T04:44:57.388Z,470.00
2023-04-27T04:45:57.407Z,472.00
2023-04-27T04:46:57.419Z,472.00
2023-04-27T04:47:57.414Z,471.00
2023-04-27T04:48:57.405Z,471.00
2023-04-27T04:49:57.383Z,472.00
2023-04-27T04:50:57.430Z,473.00
2023-04-27T04:51:57.341Z,473.00
2023-04-27T04:52:57.346Z,473.00
2023-04-27T04:53:57.370Z,471.00
2023-04-27T04:54:57.331Z,471.00
2023-04-27T04:55:57.322Z,473.00
2023-04-27T04:56:57.325Z,476.00
2023-04-27T04:57:57.321Z,476.00
2023-04-27T04:58:57.315Z,474.00
2023-04-27T04:59:57.294Z,477.00
2023-04-27T05:00:57.288Z,475.00
2023-04-27T05:01:57.372Z,472.00
2023-04-27T05:02:57.436Z,474.00
2023-04-27T05:03:57.458Z,473.00
2023-04-27T05:04:57.460Z,471.00
2023-04-27T05:05:57.293Z,469.00
2023-04-27T05:06:57.292Z,471.00
2023-04-27T05:07:57.250Z,467.00
2023-04-27T05:08:57.225Z,469.00
2023-04-27T05:09:57.229Z,469.00
2023-04-27T05:10:57.201Z,470.00
2023-04-27T05:11:57.204Z,472.00
2023-04-27T05:12:57.208Z,475.00
2023-04-27T05:13:57.228Z,475.00
2023-04-27T05:14:57.172Z,477.00
2023-04-27T05:15:57.209Z,475.00
2023-04-27T05:16:57.194Z,475.00
2023-04-27T05:17:57.304Z,476.00
2023-04-27T05:18:57.153Z,476.00
2023-04-27T05:19:57.143Z,477.00
2023-04-27T05:20:57.173Z,477.00
2023-04-27T05:21:57.128Z,479.00
2023-04-27T05:22:57.145Z,481.00
2023-04-27T05:23:57.121Z,481.00
2023-04-27T05:24:57.131Z,476.00
2023-04-27T05:25:57.224Z,474.00
2023-04-27T05:26:57.111Z,473.00
2023-04-27T05:27:57.108Z,471.00
2023-04-27T05:28:57.086Z,472.00
2023-04-27T05:29:57.113Z,479.00
2023-04-27T05:30:57.113Z,483.00
2023-04-27T05:31:57.119Z,485.00
2023-04-27T05:32:57.145Z,483.00
2023-04-27T05:33:57.090Z,483.00
2023-04-27T05:34:57.047Z,485.00
2023-04-27T05:35:57.194Z,552.00
2023-04-27T05:36:57.076Z,557.00
2023-04-27T05:37:57.100Z,581.00
2023-04-27T05:38:57.066Z,626.00
2023-04-27T05:39:57.055Z,712.00
2023-04-27T05:40:57.081Z,746.00
2023-04-27T05:41:57.130Z,800.00
2023-04-27T05:42:57.536Z,876.00
2023-04-27T05:43:57.207Z,921.00
2023-04-27T05:44:57.215Z,977.00
2023-04-27T05:45:57.339Z,1012.00
2023-04-27T05:46:57.358Z,1042.00
2023-04-27T05:47:57.452Z,1058.00
2023-04-27T05:48:57.424Z,1053.00
2023-04-27T05:49:58.096Z,1055.00
2023-04-27T05:50:57.508Z,1054.00
2023-04-27T05:51:57.507Z,1083.00
2023-04-27T05:52:58.040Z,1158.00
2023-04-27T05:53:57.572Z,1182.00
2023-04-27T05:54:57.688Z,1233.00
2023-04-27T05:55:57.624Z,1243.00
2023-04-27T05:56:57.601Z,1253.00
2023-04-27T05:58:07.700Z,1272.00
2023-04-27T05:59:01.168Z,1275.00
2023-04-27T05:59:57.581Z,1272.00
2023-04-27T06:00:57.594Z,1274.00
2023-04-27T06:01:57.656Z,1334.00
2023-04-27T06:02:57.704Z,1332.00
2023-04-27T06:03:57.703Z,1329.00
2023-04-27T06:04:57.670Z,1344.00
2023-04-27T06:05:59.089Z,1371.00
2023-04-27T06:06:57.556Z,1394.00
2023-04-27T06:07:57.538Z,1398.00
2023-04-27T06:08:57.527Z,1395.00
2023-04-27T06:09:57.523Z,1399.00
2023-04-27T06:10:57.636Z,1410.00
2023-04-27T06:11:57.511Z,1428.00
2023-04-27T06:12:57.532Z,1505.00
2023-04-27T06:13:57.516Z,1517.00
2023-04-27T06:14:57.505Z,1535.00
2023-04-27T06:15:57.501Z,1532.00
2023-04-27T06:16:57.534Z,1546.00
2023-04-27T06:17:57.633Z,1557.00
2023-04-27T06:18:57.693Z,1560.00
2023-04-27T06:19:57.709Z,1571.00
2023-04-27T06:20:57.762Z,1585.00
2023-04-27T06:21:57.849Z,1630.00
2023-04-27T06:22:57.931Z,1644.00
2023-04-27T06:23:57.931Z,1710.00
2023-04-27T06:24:58.032Z,1690.00
2023-04-27T06:25:58.080Z,1711.00
2023-04-27T06:26:58.158Z,1692.00
2023-04-27T06:27:58.155Z,1591.00
2023-04-27T06:28:58.223Z,1637.00
2023-04-27T06:29:59.030Z,1647.00
2023-04-27T06:30:58.455Z,1649.00
2023-04-27T06:31:58.429Z,1670.00
2023-04-27T06:32:58.487Z,1684.00
2023-04-27T06:33:58.471Z,1708.00
2023-04-27T06:34:58.552Z,1771.00
2023-04-27T06:35:58.593Z,1828.00
2023-04-27T06:36:58.620Z,1852.00
2023-04-27T06:37:58.821Z,1820.00
2023-04-27T06:38:58.803Z,1729.00
2023-04-27T06:39:58.777Z,1777.00
2023-04-27T06:40:58.857Z,1763.00
2023-04-27T06:41:58.887Z,1744.00
2023-04-27T06:42:59.092Z,1696.00
2023-04-27T06:43:59.301Z,1685.00
2023-04-27T06:44:59.040Z,1681.00
2023-04-27T06:45:59.126Z,1679.00
2023-04-27T06:46:59.196Z,1672.00
2023-04-27T06:47:59.304Z,1666.00
2023-04-27T06:48:59.306Z,1665.00
2023-04-27T06:49:59.324Z,1657.00
2023-04-27T06:50:59.410Z,1653.00
2023-04-27T06:51:59.432Z,1652.00
2023-04-27T06:52:59.471Z,1647.00
2023-04-27T06:53:59.518Z,1644.00
2023-04-27T06:54:59.637Z,1649.00
2023-04-27T06:55:59.665Z,1645.00
2023-04-27T06:56:59.738Z,1634.00
2023-04-27T06:57:59.729Z,1621.00
2023-04-27T06:58:59.776Z,1612.00
2023-04-27T06:59:59.765Z,1611.00
2023-04-27T07:00:59.833Z,1609.00
2023-04-27T07:02:00.030Z,1602.00
2023-04-27T07:02:59.941Z,1597.00
2023-04-27T07:03:59.953Z,1595.00
2023-04-27T07:04:59.991Z,1592.00
2023-04-27T07:05:59.928Z,1594.00
2023-04-27T07:06:59.977Z,1588.00
2023-04-27T07:08:01.568Z,1588.00
2023-04-27T07:08:59.979Z,1584.00
2023-04-27T07:09:59.976Z,1580.00
2023-04-27T07:10:59.977Z,1582.00
2023-04-27T07:11:59.962Z,1579.00
2023-04-27T07:12:59.968Z,1573.00
2023-04-27T07:13:59.979Z,1568.00
2023-04-27T07:14:59.942Z,1561.00
2023-04-27T07:15:59.954Z,1556.00
2023-04-27T07:16:59.941Z,1549.00
2023-04-27T07:17:59.970Z,1548.00
2023-04-27T07:18:59.952Z,1547.00
2023-04-27T07:19:59.994Z,1543.00
2023-04-27T07:20:59.905Z,1541.00
2023-04-27T07:21:59.922Z,1542.00
2023-04-27T07:22:59.900Z,1536.00
2023-04-27T07:23:59.895Z,1532.00
2023-04-27T07:24:59.862Z,1529.00
2023-04-27T07:26:00.129Z,1531.00
2023-04-27T07:26:59.869Z,1531.00
2023-04-27T07:27:59.837Z,1528.00
2023-04-27T07:28:59.858Z,1523.00
2023-04-27T07:29:59.868Z,1517.00
2023-04-27T07:30:59.846Z,1521.00
2023-04-27T07:31:59.830Z,1585.00
2023-04-27T07:32:59.845Z,1593.00
2023-04-27T07:33:59.847Z,1729.00
2023-04-27T07:34:59.816Z,1643.00
2023-04-27T07:36:00.154Z,1644.00
2023-04-27T07:36:59.773Z,1639.00
2023-04-27T07:37:59.820Z,1632.00
2023-04-27T07:39:00.097Z,1624.00
2023-04-27T07:39:59.833Z,1618.00
2023-04-27T07:41:00.096Z,1617.00
2023-04-27T07:41:59.751Z,1616.00
2023-04-27T07:42:59.780Z,1615.00
2023-04-27T07:43:59.731Z,1616.00
2023-04-27T07:44:59.752Z,1610.00
2023-04-27T07:46:00.229Z,1606.00
2023-04-27T07:46:59.717Z,1602.00
2023-04-27T07:47:59.768Z,1595.00
2023-04-27T07:49:00.095Z,1591.00
2023-04-27T07:49:59.825Z,1589.00
2023-04-27T07:51:00.073Z,1584.00
2023-04-27T07:51:59.910Z,1579.00
2023-04-27T07:52:59.949Z,1575.00
2023-04-27T07:54:00.027Z,1570.00
2023-04-27T07:55:00.057Z,1570.00
2023-04-27T07:56:00.584Z,1568.00
2023-04-27T07:57:00.117Z,1570.00
2023-04-27T07:58:00.225Z,1569.00
2023-04-27T07:59:00.608Z,1567.00
2023-04-27T08:00:00.275Z,1568.00
2023-04-27T08:01:00.302Z,1568.00
2023-04-27T08:02:17.909Z,1569.00
2023-04-27T08:03:01.435Z,1571.00
2023-04-27T08:04:00.772Z,1566.00
2023-04-27T08:05:00.488Z,1565.00
2023-04-27T08:06:00.659Z,1564.00
2023-04-27T08:07:00.619Z,1563.00
2023-04-27T08:08:00.566Z,1562.00
2023-04-27T08:09:00.236Z,1556.00
2023-04-27T08:10:00.247Z,1548.00
2023-04-27T08:11:00.361Z,1546.00
2023-04-27T08:12:00.238Z,1544.00
2023-04-27T08:13:00.322Z,1539.00
2023-04-27T08:14:00.342Z,1537.00
2023-04-27T08:15:00.424Z,1536.00
2023-04-27T08:16:00.437Z,1533.00
2023-04-27T08:17:00.518Z,1531.00
2023-04-27T08:18:00.623Z,1528.00
2023-04-27T08:19:00.892Z,1528.00
2023-04-27T08:20:00.640Z,1527.00
2023-04-27T08:21:00.702Z,1530.00
2023-04-27T08:22:00.736Z,1528.00
2023-04-27T08:23:00.785Z,1527.00
2023-04-27T08:24:01.110Z,1522.00
2023-04-27T08:25:00.881Z,1527.00
2023-04-27T08:26:00.958Z,1536.00
2023-04-27T08:27:01.047Z,1540.00
2023-04-27T08:28:01.040Z,1552.00
2023-04-27T08:29:15.491Z,1554.00
2023-04-27T08:30:02.071Z,1559.00
2023-04-27T08:31:01.152Z,1560.00
2023-04-27T08:32:01.064Z,1565.00
2023-04-27T08:33:01.111Z,1566.00
2023-04-27T08:34:01.052Z,1567.00
2023-04-27T08:35:01.133Z,1569.00
2023-04-27T08:36:01.093Z,1568.00
2023-04-27T08:37:01.056Z,1567.00
2023-04-27T08:38:01.012Z,1568.00
2023-04-27T08:39:01.108Z,1565.00
2023-04-27T08:40:01.157Z,1563.00
2023-04-27T08:41:14.264Z,1559.00
2023-04-27T08:42:02.192Z,1556.00
2023-04-27T08:43:01.310Z,1553.00
2023-04-27T08:44:01.187Z,1562.00
2023-04-27T08:45:01.175Z,1593.00
2023-04-27T08:46:01.290Z,1694.00
2023-04-27T08:47:01.145Z,1755.00
2023-04-27T08:48:01.187Z,1792.00
2023-04-27T08:49:01.179Z,1835.00
2023-04-27T08:50:01.154Z,1863.00
2023-04-27T08:51:01.165Z,1868.00
2023-04-27T08:52:01.176Z,1890.00
2023-04-27T08:53:01.185Z,1905.00
2023-04-27T08:54:01.209Z,1921.00
2023-04-27T08:55:01.207Z,1965.00
2023-04-27T08:56:01.210Z,1987.00
2023-04-27T08:57:01.194Z,2036.00
2023-04-27T08:58:01.205Z,2075.00
2023-04-27T08:59:01.204Z,2098.00
2023-04-27T09:00:01.194Z,2171.00
2023-04-27T09:01:01.202Z,2192.00
2023-04-27T09:02:01.246Z,2204.00
2023-04-27T09:03:01.343Z,2264.00
2023-04-27T09:04:01.530Z,2277.00
2023-04-27T09:05:01.472Z,2295.00
2023-04-27T09:06:05.031Z,2315.00
2023-04-27T09:07:01.374Z,2335.00
2023-04-27T09:08:01.406Z,2391.00
2023-04-27T09:09:01.363Z,2462.00
2023-04-27T09:10:01.371Z,2476.00
2023-04-27T09:11:01.416Z,2500.00
2023-04-27T09:12:01.348Z,2524.00
2023-04-27T09:13:01.338Z,2538.00
2023-04-27T09:14:01.330Z,2561.00
2023-04-27T09:15:01.332Z,2613.00
2023-04-27T09:16:01.418Z,2638.00
2023-04-27T09:17:01.341Z,2643.00
2023-04-27T09:18:01.340Z,2643.00
2023-04-27T09:19:01.353Z,2653.00
2023-04-27T09:20:01.289Z,2656.00
2023-04-27T09:21:01.293Z,2701.00
2023-04-27T09:22:01.288Z,2752.00
2023-04-27T09:23:01.276Z,2767.00
2023-04-27T09:24:01.280Z,2778.00
2023-04-27T09:25:01.302Z,2797.00
2023-04-27T09:26:01.243Z,2806.00
2023-04-27T09:27:01.316Z,2953.00
2023-04-27T09:28:01.278Z,2974.00
2023-04-27T09:29:01.229Z,2956.00
2023-04-27T09:30:01.286Z,3041.00
2023-04-27T09:31:01.208Z,3026.00
2023-04-27T09:32:01.325Z,3044.00
2023-04-27T09:33:01.264Z,3077.00
2023-04-27T09:34:01.210Z,3102.00
2023-04-27T09:35:01.182Z,3109.00
2023-04-27T09:36:01.234Z,3102.00
2023-04-27T09:37:01.235Z,2713.00
2023-04-27T09:38:02.206Z,2227.00
2023-04-27T09:39:01.178Z,2211.00
2023-04-27T09:40:01.157Z,1821.00
2023-04-27T09:41:01.153Z,1713.00
2023-04-27T09:42:01.160Z,1608.00
2023-04-27T09:43:01.203Z,1424.00
2023-04-27T09:44:01.625Z,1363.00
2023-04-27T09:45:01.145Z,1198.00
2023-04-27T09:46:01.217Z,1161.00
2023-04-27T09:47:01.248Z,1178.00
2023-04-27T09:48:01.215Z,1187.00
2023-04-27T09:49:01.139Z,1159.00
2023-04-27T09:50:01.475Z,1108.00
2023-04-27T09:51:01.103Z,1074.00
2023-04-27T09:52:01.126Z,1006.00
2023-04-27T09:53:01.076Z,1006.00
2023-04-27T09:54:01.055Z,1002.00
2023-04-27T09:55:01.062Z,917.00
2023-04-27T09:56:01.047Z,905.00
2023-04-27T09:57:01.034Z,898.00
2023-04-27T09:58:01.045Z,904.00
2023-04-27T09:59:01.080Z,929.00
2023-04-27T10:00:01.044Z,926.00
2023-04-27T10:01:01.144Z,931.00
2023-04-27T10:02:07.223Z,942.00
2023-04-27T10:03:02.166Z,987.00
2023-04-27T10:04:01.305Z,1054.00
2023-04-27T10:05:01.185Z,1024.00
2023-04-27T10:06:01.089Z,1037.00
2023-04-27T10:07:01.035Z,1034.00
2023-04-27T10:08:01.060Z,1038.00
2023-04-27T10:09:01.055Z,1037.00
2023-04-27T10:10:01.086Z,1041.00
2023-04-27T10:11:01.057Z,1032.00
2023-04-27T10:12:01.124Z,1035.00
2023-04-27T10:13:01.012Z,1052.00
2023-04-27T10:14:00.988Z,1060.00
2023-04-27T10:15:00.986Z,1054.00
2023-04-27T10:16:00.978Z,1037.00
2023-04-27T10:17:01.002Z,1035.00
2023-04-27T10:18:01.009Z,1037.00
2023-04-27T10:19:00.963Z,987.00
2023-04-27T10:20:00.961Z,972.00
2023-04-27T10:21:01.045Z,970.00
2023-04-27T10:22:00.935Z,1047.00
2023-04-27T10:23:00.996Z,1064.00
2023-04-27T10:24:00.955Z,1034.00
2023-04-27T10:25:00.914Z,1002.00
2023-04-27T10:26:00.912Z,1008.00
2023-04-27T10:27:00.925Z,1006.00
2023-04-27T10:28:00.898Z,1013.00
2023-04-27T10:29:00.917Z,1113.00
2023-04-27T10:30:00.887Z,1086.00
2023-04-27T10:31:00.966Z,1072.00
2023-04-27T10:32:00.904Z,1069.00
2023-04-27T10:33:00.958Z,1081.00
2023-04-27T10:34:01.169Z,1097.00
2023-04-27T10:35:00.864Z,1186.00
2023-04-27T10:36:00.833Z,1163.00
2023-04-27T10:37:00.864Z,1291.00
2023-04-27T10:38:00.885Z,1156.00
2023-04-27T10:39:00.858Z,1145.00
2023-04-27T10:40:00.804Z,1175.00
2023-04-27T10:41:00.870Z,1257.00
2023-04-27T10:42:01.159Z,1266.00
2023-04-27T10:43:00.818Z,1279.00
2023-04-27T10:44:00.793Z,1314.00
2023-04-27T10:45:00.770Z,1300.00
2023-04-27T10:46:00.835Z,1277.00
2023-04-27T10:47:00.804Z,1280.00
2023-04-27T10:48:01.010Z,1285.00
2023-04-27T10:49:00.841Z,1295.00
2023-04-27T10:50:00.930Z,1293.00
2023-04-27T10:51:00.967Z,1294.00
2023-04-27T10:52:01.048Z,1332.00
2023-04-27T10:53:01.160Z,1346.00
2023-04-27T10:54:01.160Z,1340.00
2023-04-27T10:55:01.198Z,1330.00
2023-04-27T10:56:01.343Z,1330.00
2023-04-27T10:57:01.385Z,1332.00
2023-04-27T10:58:01.357Z,1317.00
2023-04-27T10:59:01.453Z,1350.00
2023-04-27T11:00:01.510Z,1313.00
2023-04-27T11:01:01.566Z,1300.00
2023-04-27T11:02:01.728Z,1292.00
2023-04-27T11:03:01.740Z,1275.00
2023-04-27T11:04:01.718Z,1278.00
2023-04-27T11:05:01.824Z,1338.00
2023-04-27T11:06:01.800Z,1299.00
2023-04-27T11:07:02.183Z,1292.00
2023-04-27T11:08:01.939Z,1290.00
2023-04-27T11:09:01.980Z,1564.00
2023-04-27T11:10:02.019Z,1351.00
2023-04-27T11:11:02.053Z,1345.00
2023-04-27T11:12:02.137Z,1327.00
2023-04-27T11:13:02.180Z,1360.00
2023-04-27T11:14:02.425Z,1307.00
2023-04-27T11:15:02.640Z,1313.00
2023-04-27T11:16:02.448Z,1312.00
2023-04-27T11:17:02.389Z,1320.00
2023-04-27T11:18:02.517Z,1379.00
2023-04-27T11:19:02.477Z,1372.00
2023-04-27T11:20:02.548Z,1350.00
2023-04-27T11:21:02.549Z,1347.00
2023-04-27T11:22:02.758Z,1336.00
2023-04-27T11:23:02.676Z,1333.00
2023-04-27T11:24:02.707Z,1332.00
2023-04-27T11:25:03.151Z,1329.00
2023-04-27T11:26:02.846Z,1323.00
2023-04-27T11:27:03.165Z,1319.00
2023-04-27T11:28:02.962Z,1318.00
2023-04-27T11:29:03.014Z,1323.00
2023-04-27T11:30:03.160Z,1323.00
2023-04-27T11:31:03.108Z,1325.00
2023-04-27T11:32:03.269Z,1322.00
2023-04-27T11:33:03.183Z,1322.00
2023-04-27T11:34:04.049Z,1319.00
2023-04-27T11:35:03.223Z,1315.00
2023-04-27T11:36:03.227Z,1316.00
2023-04-27T11:37:17.492Z,1316.00
2023-04-27T11:38:04.321Z,1319.00
2023-04-27T11:39:03.285Z,1318.00
2023-04-27T11:40:03.295Z,1317.00
2023-04-27T11:41:03.285Z,1316.00
2023-04-27T11:42:03.212Z,1314.00
2023-04-27T11:43:03.198Z,1312.00
2023-04-27T11:44:03.192Z,1310.00
2023-04-27T11:45:03.204Z,1309.00
2023-04-27T11:46:03.206Z,1310.00
2023-04-27T11:47:03.403Z,1310.00
2023-04-27T11:48:03.242Z,1309.00
2023-04-27T11:49:03.160Z,1307.00
2023-04-27T11:50:03.203Z,1306.00
2023-04-27T11:51:03.154Z,1306.00
2023-04-27T11:52:03.151Z,1306.00
2023-04-27T11:53:03.161Z,1308.00
2023-04-27T11:54:03.144Z,1308.00
2023-04-27T11:55:03.190Z,1307.00
2023-04-27T11:56:03.120Z,1309.00
2023-04-27T11:57:03.111Z,1307.00
2023-04-27T11:58:03.080Z,1310.00
2023-04-27T11:59:03.102Z,1312.00
2023-04-27T12:00:03.115Z,1311.00
2023-04-27T12:01:03.121Z,1308.00
2023-04-27T12:02:03.103Z,1307.00
2023-04-27T12:03:03.267Z,1304.00
2023-04-27T12:04:03.173Z,1297.00
2023-04-27T12:05:03.311Z,1296.00
2023-04-27T12:06:21.327Z,1291.00
2023-04-27T12:07:04.098Z,1290.00
2023-04-27T12:08:03.082Z,1284.00
2023-04-27T12:09:03.076Z,1283.00
2023-04-27T12:10:03.197Z,1282.00
2023-04-27T12:11:03.060Z,1278.00
2023-04-27T12:12:03.049Z,1280.00
2023-04-27T12:13:03.041Z,1280.00
2023-04-27T12:14:03.066Z,1281.00
2023-04-27T12:15:03.041Z,1279.00
2023-04-27T12:16:03.076Z,1278.00
2023-04-27T12:17:03.084Z,1277.00